createdAt,value
2023-05-05T00:00:31.284Z,8.80
2023-05-05T00:01:18.203Z,8.79
2023-05-05T00:01:51.614Z,8.79
2023-05-05T00:02:25.004Z,8.77
2023-05-05T00:02:58.920Z,8.78
2023-05-05T00:03:33.623Z,8.77
2023-05-05T00:04:06.954Z,8.77
2023-05-05T00:04:40.201Z,8.78
2023-05-05T00:05:13.512Z,8.77
2023-05-05T00:05:47.483Z,8.76
2023-05-05T00:06:20.595Z,8.77
2023-05-05T00:06:53.609Z,8.76
2023-05-05T00:07:26.771Z,8.75
2023-05-05T00:08:00.586Z,8.75
2023-05-05T00:08:33.786Z,8.74
2023-05-05T00:09:07.263Z,8.73
2023-05-05T00:09:40.349Z,8.72
2023-05-05T00:10:13.547Z,8.72
2023-05-05T00:10:47.677Z,8.71
2023-05-05T00:11:20.846Z,8.71
2023-05-05T00:11:54.132Z,8.71
2023-05-05T00:12:27.410Z,8.71
2023-05-05T00:13:00.653Z,8.70
2023-05-05T00:13:33.927Z,8.70
2023-05-05T00:14:07.077Z,8.69
2023-05-05T00:14:40.206Z,8.69
2023-05-05T00:15:13.478Z,8.68
2023-05-05T00:15:47.058Z,8.67
2023-05-05T00:16:20.437Z,8.66
2023-05-05T00:16:53.826Z,8.65
2023-05-05T00:17:27.060Z,8.66
2023-05-05T00:18:00.522Z,8.66
2023-05-05T00:18:34.155Z,8.66
2023-05-05T00:19:07.542Z,8.65
2023-05-05T00:19:41.103Z,8.65
2023-05-05T00:20:14.431Z,8.63
2023-05-05T00:20:48.137Z,8.62
2023-05-05T00:21:21.488Z,8.61
2023-05-05T00:21:54.679Z,8.62
2023-05-05T00:22:27.774Z,8.61
2023-05-05T00:23:01.451Z,8.61
2023-05-05T00:23:34.655Z,8.60
2023-05-05T00:24:08.036Z,8.61
2023-05-05T00:24:41.268Z,8.59
2023-05-05T00:25:14.546Z,8.59
2023-05-05T00:25:48.011Z,8.59
2023-05-05T00:26:21.511Z,8.58
2023-05-05T00:26:54.552Z,8.57
2023-05-05T00:27:27.776Z,8.56
2023-05-05T00:28:01.136Z,8.54
2023-05-05T00:28:34.303Z,8.54
2023-05-05T00:29:07.420Z,8.54
2023-05-05T00:29:40.604Z,8.54
2023-05-05T00:30:13.946Z,8.53
2023-05-05T00:30:47.278Z,8.52
2023-05-05T00:31:20.674Z,8.51
2023-05-05T00:31:53.870Z,8.50
2023-05-05T00:32:26.903Z,8.47
2023-05-05T00:33:00.203Z,8.47
2023-05-05T00:33:33.432Z,8.47
2023-05-05T00:34:06.627Z,8.46
2023-05-05T00:34:39.585Z,8.45
2023-05-05T00:35:12.746Z,8.44
2023-05-05T00:35:45.949Z,8.43
2023-05-05T00:36:18.915Z,8.43
2023-05-05T00:36:52.067Z,8.41
2023-05-05T00:37:25.337Z,8.38
2023-05-05T00:37:58.645Z,8.36
2023-05-05T00:38:32.037Z,8.34
2023-05-05T00:39:05.261Z,8.33
2023-05-05T00:39:38.807Z,8.31
2023-05-05T00:40:12.719Z,8.31
2023-05-05T00:40:45.908Z,8.30
2023-05-05T00:41:19.002Z,8.30
2023-05-05T00:41:52.158Z,8.31
2023-05-05T00:42:25.618Z,8.31
2023-05-05T00:42:59.813Z,8.31
2023-05-05T00:43:33.008Z,8.31
2023-05-05T00:44:06.341Z,8.30
2023-05-05T00:44:40.520Z,8.29
2023-05-05T00:45:17.263Z,8.28
2023-05-05T00:45:57.373Z,8.24
2023-05-05T00:46:32.186Z,8.20
2023-05-05T00:47:05.998Z,8.17
2023-05-05T00:47:39.641Z,8.16
2023-05-05T00:48:13.072Z,8.16
2023-05-05T00:48:46.172Z,8.17
2023-05-05T00:49:19.404Z,8.17
2023-05-05T00:49:52.490Z,8.18
2023-05-05T00:50:26.500Z,8.19
2023-05-05T00:50:59.846Z,8.20
2023-05-05T00:51:33.150Z,8.19
2023-05-05T00:52:07.577Z,8.19
2023-05-05T00:52:40.799Z,8.19
2023-05-05T00:53:14.039Z,8.19
2023-05-05T00:53:47.795Z,8.19
2023-05-05T00:54:21.133Z,8.20
2023-05-05T00:54:54.546Z,8.19
2023-05-05T00:55:28.569Z,8.19
2023-05-05T00:56:01.978Z,8.18
2023-05-05T00:56:34.913Z,8.17
2023-05-05T00:57:08.034Z,8.17
2023-05-05T00:57:41.381Z,8.16
2023-05-05T00:58:14.858Z,8.15
2023-05-05T00:58:48.266Z,8.15
2023-05-05T00:59:21.628Z,8.15
2023-05-05T00:59:55.206Z,8.15
2023-05-05T01:00:28.746Z,8.15
2023-05-05T01:01:01.806Z,8.14
2023-05-05T01:01:35.095Z,8.14
2023-05-05T01:02:09.303Z,8.13
2023-05-05T01:02:42.533Z,8.11
2023-05-05T01:03:15.968Z,8.10
2023-05-05T01:03:49.188Z,8.08
2023-05-05T01:04:22.655Z,8.07
2023-05-05T01:04:55.795Z,8.06
2023-05-05T01:05:33.250Z,8.06
2023-05-05T01:06:25.289Z,8.06
2023-05-05T01:06:58.767Z,8.07
2023-05-05T01:07:31.867Z,8.07
2023-05-05T01:08:14.314Z,8.07
2023-05-05T01:08:54.229Z,8.08
2023-05-05T01:09:39.238Z,8.07
2023-05-05T01:10:23.342Z,8.05
2023-05-05T01:11:03.493Z,8.03
2023-05-05T01:11:46.336Z,8.02
2023-05-05T01:12:22.512Z,8.00
2023-05-05T01:13:05.370Z,7.98
2023-05-05T01:13:41.610Z,7.97
2023-05-05T01:14:17.240Z,7.97
2023-05-05T01:14:57.506Z,7.97
2023-05-05T01:15:35.303Z,7.96
2023-05-05T01:16:17.020Z,7.97
2023-05-05T01:16:56.050Z,7.97
2023-05-05T01:17:35.507Z,7.97
2023-05-05T01:18:14.444Z,7.98
2023-05-05T01:18:50.233Z,7.98
2023-05-05T01:19:46.579Z,7.97
2023-05-05T01:20:38.839Z,7.97
2023-05-05T01:21:31.464Z,7.96
2023-05-05T01:22:07.454Z,7.93
2023-05-05T01:22:44.490Z,7.93
2023-05-05T01:23:40.579Z,7.92
2023-05-05T01:24:16.833Z,7.92
2023-05-05T01:24:51.072Z,7.92
2023-05-05T01:25:31.893Z,7.92
2023-05-05T01:26:17.277Z,7.90
2023-05-05T01:27:09.646Z,7.86
2023-05-05T01:28:02.116Z,7.80
2023-05-05T01:28:36.013Z,7.76
2023-05-05T01:29:12.380Z,7.77
2023-05-05T01:29:48.490Z,7.77
2023-05-05T01:30:21.453Z,7.78
2023-05-05T01:30:57.459Z,7.79
2023-05-05T01:32:00.034Z,7.80
2023-05-05T01:32:35.897Z,7.78
2023-05-05T01:33:11.529Z,7.76
2023-05-05T01:33:48.067Z,7.73
2023-05-05T01:34:24.974Z,7.70
2023-05-05T01:34:58.553Z,7.69
2023-05-05T01:35:36.380Z,7.69
2023-05-05T01:36:19.872Z,7.69
2023-05-05T01:36:58.851Z,7.70
2023-05-05T01:37:38.574Z,7.70
2023-05-05T01:38:16.384Z,7.70
2023-05-05T01:38:52.012Z,7.70
2023-05-05T01:39:28.944Z,7.70
2023-05-05T01:40:04.147Z,7.71
2023-05-05T01:40:51.835Z,7.71
2023-05-05T01:41:31.020Z,7.72
2023-05-05T01:42:09.422Z,7.72
2023-05-05T01:42:43.781Z,7.72
2023-05-05T01:43:19.174Z,7.73
2023-05-05T01:43:54.066Z,7.74
2023-05-05T01:44:28.107Z,7.74
2023-05-05T01:45:03.241Z,7.74
2023-05-05T01:45:39.181Z,7.74
2023-05-05T01:46:12.959Z,7.74
2023-05-05T01:46:47.861Z,7.72
2023-05-05T01:47:22.450Z,7.72
2023-05-05T01:47:56.698Z,7.72
2023-05-05T01:48:30.281Z,7.71
2023-05-05T01:49:04.431Z,7.71
2023-05-05T01:49:38.447Z,7.71
2023-05-05T01:50:12.537Z,7.72
2023-05-05T01:50:47.022Z,7.71
2023-05-05T01:51:22.755Z,7.71
2023-05-05T01:51:56.792Z,7.70
2023-05-05T01:52:30.118Z,7.70
2023-05-05T01:53:05.120Z,7.70
2023-05-05T01:53:39.247Z,7.70
2023-05-05T01:54:13.814Z,7.69
2023-05-05T01:54:48.086Z,7.68
2023-05-05T01:55:24.679Z,7.68
2023-05-05T01:55:58.624Z,7.68
2023-05-05T01:56:32.433Z,7.68
2023-05-05T01:57:06.697Z,7.68
2023-05-05T01:57:41.443Z,7.66
2023-05-05T01:58:15.265Z,7.65
2023-05-05T01:58:48.653Z,7.64
2023-05-05T01:59:22.476Z,7.64
2023-05-05T01:59:56.475Z,7.64
2023-05-05T02:00:30.730Z,7.64
2023-05-05T02:01:04.145Z,7.64
2023-05-05T02:01:39.133Z,7.64
2023-05-05T02:02:13.284Z,7.64
2023-05-05T02:02:47.921Z,7.64
2023-05-05T02:03:22.951Z,7.65
2023-05-05T02:03:57.389Z,7.65
2023-05-05T02:04:32.371Z,7.65
2023-05-05T02:05:06.844Z,7.64
2023-05-05T02:05:40.753Z,7.64
2023-05-05T02:06:14.473Z,7.63
2023-05-05T02:06:50.583Z,7.63
2023-05-05T02:07:24.347Z,7.62
2023-05-05T02:07:59.180Z,7.61
2023-05-05T02:08:33.232Z,7.61
2023-05-05T02:09:07.097Z,7.61
2023-05-05T02:09:41.315Z,7.61
2023-05-05T02:10:15.294Z,7.60
2023-05-05T02:10:49.722Z,7.60
2023-05-05T02:11:23.540Z,7.60
2023-05-05T02:12:00.784Z,7.59
2023-05-05T02:12:35.486Z,7.59
2023-05-05T02:13:10.837Z,7.59
2023-05-05T02:13:44.555Z,7.58
2023-05-05T02:14:19.493Z,7.57
2023-05-05T02:14:53.184Z,7.54
2023-05-05T02:15:28.024Z,7.53
2023-05-05T02:16:01.746Z,7.52
2023-05-05T02:16:36.026Z,7.51
2023-05-05T02:17:09.932Z,7.50
2023-05-05T02:17:44.044Z,7.49
2023-05-05T02:18:18.100Z,7.48
2023-05-05T02:18:52.462Z,7.48
2023-05-05T02:19:38.713Z,7.48
2023-05-05T02:20:12.938Z,7.48
2023-05-05T02:20:47.155Z,7.47
2023-05-05T02:21:21.163Z,7.47
2023-05-05T02:21:54.291Z,7.47
2023-05-05T02:22:27.892Z,7.46
2023-05-05T02:23:01.087Z,7.44
2023-05-05T02:23:34.326Z,7.44
2023-05-05T02:24:08.604Z,7.44
2023-05-05T02:24:41.770Z,7.43
2023-05-05T02:25:15.040Z,7.40
2023-05-05T02:25:53.444Z,7.38
2023-05-05T02:26:28.468Z,7.36
2023-05-05T02:27:04.020Z,7.34
2023-05-05T02:27:38.110Z,7.33
2023-05-05T02:28:34.379Z,7.33
2023-05-05T02:29:09.572Z,7.33
2023-05-05T02:29:47.694Z,7.32
2023-05-05T02:30:21.486Z,7.33
2023-05-05T02:30:59.828Z,7.33
2023-05-05T02:31:34.806Z,7.32
2023-05-05T02:32:11.611Z,7.32
2023-05-05T02:32:50.940Z,7.31
2023-05-05T02:33:25.620Z,7.30
2023-05-05T02:34:01.672Z,7.30
2023-05-05T02:34:39.077Z,7.30
2023-05-05T02:35:17.365Z,7.30
2023-05-05T02:35:52.277Z,7.30
2023-05-05T02:36:28.611Z,7.29
2023-05-05T02:37:03.730Z,7.30
2023-05-05T02:37:37.177Z,7.29
2023-05-05T02:38:13.879Z,7.29
2023-05-05T02:38:48.719Z,7.28
2023-05-05T02:39:27.808Z,7.29
2023-05-05T02:40:03.138Z,7.28
2023-05-05T02:40:37.754Z,7.29
2023-05-05T02:41:12.721Z,7.28
2023-05-05T02:41:47.524Z,7.29
2023-05-05T02:42:22.706Z,7.29
2023-05-05T02:42:57.585Z,7.28
2023-05-05T02:43:31.770Z,7.27
2023-05-05T02:44:05.489Z,7.27
2023-05-05T02:44:42.009Z,7.27
2023-05-05T02:45:20.500Z,7.26
2023-05-05T02:45:53.681Z,7.26
2023-05-05T02:46:27.683Z,7.26
2023-05-05T02:47:04.021Z,7.26
2023-05-05T02:47:37.847Z,7.26
2023-05-05T02:48:13.178Z,7.26
2023-05-05T02:48:46.415Z,7.26
2023-05-05T02:49:19.757Z,7.27
2023-05-05T02:49:53.125Z,7.27
2023-05-05T02:50:26.277Z,7.27
2023-05-05T02:50:59.308Z,7.28
2023-05-05T02:51:33.251Z,7.28
2023-05-05T02:52:06.616Z,7.29
2023-05-05T02:52:39.975Z,7.29
2023-05-05T02:53:13.204Z,7.27
2023-05-05T02:53:46.604Z,7.25
2023-05-05T02:54:19.711Z,7.24
2023-05-05T02:54:52.804Z,7.23
2023-05-05T02:55:37.327Z,7.21
2023-05-05T02:56:10.380Z,7.19
2023-05-05T02:56:47.566Z,7.17
2023-05-05T02:57:22.575Z,7.15
2023-05-05T02:58:07.800Z,7.12
2023-05-05T02:58:44.378Z,7.09
2023-05-05T02:59:23.593Z,7.08
2023-05-05T02:59:59.765Z,7.08
2023-05-05T03:00:44.141Z,7.09
2023-05-05T03:01:23.046Z,7.10
2023-05-05T03:02:14.319Z,7.11
2023-05-05T03:02:55.605Z,7.11
2023-05-05T03:03:36.710Z,7.13
2023-05-05T03:04:17.663Z,7.13
2023-05-05T03:04:54.917Z,7.13
2023-05-05T03:05:35.539Z,7.14
2023-05-05T03:06:16.631Z,7.14
2023-05-05T03:06:53.836Z,7.14
2023-05-05T03:07:50.208Z,7.15
2023-05-05T03:08:26.096Z,7.15
2023-05-05T03:09:06.534Z,7.14
2023-05-05T03:10:02.449Z,7.13
2023-05-05T03:10:40.408Z,7.10
2023-05-05T03:11:32.096Z,7.07
2023-05-05T03:12:07.412Z,7.06
2023-05-05T03:12:48.553Z,7.07
2023-05-05T03:13:24.599Z,7.07
2023-05-05T03:14:18.523Z,7.07
2023-05-05T03:14:54.372Z,7.05
2023-05-05T03:15:41.605Z,7.05
2023-05-05T03:16:16.224Z,7.05
2023-05-05T03:16:49.792Z,7.05
2023-05-05T03:17:24.616Z,7.05
2023-05-05T03:17:58.681Z,7.06
2023-05-05T03:18:32.413Z,7.06
2023-05-05T03:19:07.117Z,7.04
2023-05-05T03:19:44.416Z,7.04
2023-05-05T03:20:17.867Z,7.04
2023-05-05T03:20:51.388Z,7.05
2023-05-05T03:21:24.956Z,7.06
2023-05-05T03:21:58.313Z,7.06
2023-05-05T03:22:31.460Z,7.07
2023-05-05T03:23:05.234Z,7.08
2023-05-05T03:23:39.114Z,7.08
2023-05-05T03:24:16.529Z,7.09
2023-05-05T03:24:50.182Z,7.11
2023-05-05T03:25:23.370Z,7.11
2023-05-05T03:25:56.562Z,7.11
2023-05-05T03:26:29.854Z,7.12
2023-05-05T03:27:03.276Z,7.13
2023-05-05T03:27:36.548Z,7.13
2023-05-05T03:28:09.802Z,7.11
2023-05-05T03:28:42.757Z,7.09
2023-05-05T03:29:16.173Z,7.07
2023-05-05T03:29:49.405Z,7.06
2023-05-05T03:30:22.666Z,7.09
2023-05-05T03:30:56.146Z,7.09
2023-05-05T03:31:29.296Z,7.10
2023-05-05T03:32:02.915Z,7.12
2023-05-05T03:32:36.185Z,7.13
2023-05-05T03:33:10.825Z,7.14
2023-05-05T03:33:43.962Z,7.15
2023-05-05T03:34:17.099Z,7.17
2023-05-05T03:34:50.410Z,7.18
2023-05-05T03:35:23.601Z,7.20
2023-05-05T03:35:56.838Z,7.21
2023-05-05T03:36:30.069Z,7.21
2023-05-05T03:37:03.176Z,7.22
2023-05-05T03:37:36.283Z,7.22
2023-05-05T03:38:09.514Z,7.23
2023-05-05T03:38:42.392Z,7.24
2023-05-05T03:39:15.621Z,7.24
2023-05-05T03:39:48.795Z,7.25
2023-05-05T03:40:32.639Z,7.26
2023-05-05T03:41:13.863Z,7.27
2023-05-05T03:41:47.024Z,7.28
2023-05-05T03:42:20.243Z,7.29
2023-05-05T03:42:53.437Z,7.29
2023-05-05T03:43:26.588Z,7.29
2023-05-05T03:43:59.907Z,7.30
2023-05-05T03:44:33.135Z,7.31
2023-05-05T03:45:06.470Z,7.32
2023-05-05T03:45:39.776Z,7.33
2023-05-05T03:46:13.238Z,7.33
2023-05-05T03:46:46.527Z,7.35
2023-05-05T03:47:19.918Z,7.35
2023-05-05T03:47:53.049Z,7.36
2023-05-05T03:48:26.351Z,7.37
2023-05-05T03:48:59.523Z,7.38
2023-05-05T03:49:32.638Z,7.40
2023-05-05T03:50:06.962Z,7.41
2023-05-05T03:50:40.102Z,7.42
2023-05-05T03:51:13.334Z,7.42
2023-05-05T03:51:47.441Z,7.42
2023-05-05T03:52:20.648Z,7.42
2023-05-05T03:52:53.881Z,7.41
2023-05-05T03:53:26.813Z,7.40
2023-05-05T03:53:59.914Z,7.38
2023-05-05T03:54:32.951Z,7.36
2023-05-05T03:55:07.144Z,7.33
2023-05-05T03:55:40.069Z,7.31
2023-05-05T03:56:13.322Z,7.30
2023-05-05T03:56:46.264Z,7.29
2023-05-05T03:57:19.559Z,7.27
2023-05-05T03:57:52.831Z,7.28
2023-05-05T03:58:26.037Z,7.29
2023-05-05T03:58:59.363Z,7.29
2023-05-05T03:59:32.500Z,7.29
2023-05-05T04:00:06.223Z,7.29
2023-05-05T04:00:39.400Z,7.28
2023-05-05T04:01:12.571Z,7.28
2023-05-05T04:01:46.884Z,7.27
2023-05-05T04:02:20.320Z,7.27
2023-05-05T04:02:53.483Z,7.27
2023-05-05T04:03:26.947Z,7.28
2023-05-05T04:04:00.257Z,7.29
2023-05-05T04:04:33.431Z,7.30
2023-05-05T04:05:06.836Z,7.30
2023-05-05T04:05:40.026Z,7.31
2023-05-05T04:06:13.314Z,7.33
2023-05-05T04:06:46.532Z,7.34
2023-05-05T04:07:19.566Z,7.35
2023-05-05T04:07:52.818Z,7.35
2023-05-05T04:08:26.130Z,7.35
2023-05-05T04:08:59.253Z,7.35
2023-05-05T04:09:32.333Z,7.35
2023-05-05T04:10:06.305Z,7.35
2023-05-05T04:10:39.696Z,7.36
2023-05-05T04:11:12.951Z,7.37
2023-05-05T04:11:46.186Z,7.39
2023-05-05T04:12:19.158Z,7.42
2023-05-05T04:12:52.263Z,7.45
2023-05-05T04:13:25.569Z,7.48
2023-05-05T04:13:58.722Z,7.51
2023-05-05T04:14:32.013Z,7.54
2023-05-05T04:15:05.325Z,7.56
2023-05-05T04:15:38.915Z,7.59
2023-05-05T04:16:12.279Z,7.62
2023-05-05T04:16:45.593Z,7.65
2023-05-05T04:17:18.883Z,7.68
2023-05-05T04:17:52.161Z,7.70
2023-05-05T04:18:25.756Z,7.72
2023-05-05T04:18:59.035Z,7.74
2023-05-05T04:19:32.629Z,7.75
2023-05-05T04:20:06.874Z,7.76
2023-05-05T04:20:40.251Z,7.77
2023-05-05T04:21:13.511Z,7.79
2023-05-05T04:21:46.665Z,7.80
2023-05-05T04:22:19.930Z,7.82
2023-05-05T04:22:53.215Z,7.85
2023-05-05T04:23:26.701Z,7.86
2023-05-05T04:23:59.980Z,7.88
2023-05-05T04:24:33.295Z,7.91
2023-05-05T04:25:06.904Z,7.93
2023-05-05T04:25:40.131Z,7.96
2023-05-05T04:26:13.398Z,7.98
2023-05-05T04:26:46.432Z,8.00
2023-05-05T04:27:19.578Z,8.02
2023-05-05T04:27:52.833Z,8.04
2023-05-05T04:28:26.282Z,8.05
2023-05-05T04:28:59.463Z,8.06
2023-05-05T04:29:32.660Z,8.08
2023-05-05T04:30:07.032Z,8.09
2023-05-05T04:30:40.810Z,8.10
2023-05-05T04:31:14.239Z,8.12
2023-05-05T04:31:47.647Z,8.14
2023-05-05T04:32:21.108Z,8.16
2023-05-05T04:32:54.317Z,8.20
2023-05-05T04:33:27.585Z,8.22
2023-05-05T04:34:00.735Z,8.26
2023-05-05T04:34:33.946Z,8.28
2023-05-05T04:35:08.003Z,8.31
2023-05-05T04:35:41.283Z,8.34
2023-05-05T04:36:14.535Z,8.37
2023-05-05T04:36:47.798Z,8.41
2023-05-05T04:37:21.007Z,8.43
2023-05-05T04:37:55.023Z,8.46
2023-05-05T04:38:28.008Z,8.49
2023-05-05T04:39:01.125Z,8.52
2023-05-05T04:39:34.440Z,8.55
2023-05-05T04:40:08.287Z,8.58
2023-05-05T04:40:41.630Z,8.62
2023-05-05T04:41:14.781Z,8.64
2023-05-05T04:41:48.119Z,8.67
2023-05-05T04:42:21.361Z,8.69
2023-05-05T04:42:54.517Z,8.72
2023-05-05T04:43:28.026Z,8.76
2023-05-05T04:44:01.243Z,8.79
2023-05-05T04:44:34.303Z,8.82
2023-05-05T04:45:08.852Z,8.85
2023-05-05T04:45:42.202Z,8.88
2023-05-05T04:46:15.448Z,8.91
2023-05-05T04:46:48.733Z,8.93
2023-05-05T04:47:22.111Z,8.96
2023-05-05T04:47:55.444Z,8.98
2023-05-05T04:48:28.530Z,9.00
2023-05-05T04:49:03.594Z,9.03
2023-05-05T04:49:37.102Z,9.06
2023-05-05T04:50:11.537Z,9.09
2023-05-05T04:50:44.617Z,9.12
2023-05-05T04:51:17.951Z,9.15
2023-05-05T04:51:51.222Z,9.18
2023-05-05T04:52:24.270Z,9.21
2023-05-05T04:52:57.464Z,9.24
2023-05-05T04:53:31.092Z,9.27
2023-05-05T04:54:04.289Z,9.30
2023-05-05T04:54:37.652Z,9.32
2023-05-05T04:55:11.792Z,9.35
2023-05-05T04:55:44.986Z,9.38
2023-05-05T04:56:18.209Z,9.41
2023-05-05T04:56:51.338Z,9.44
2023-05-05T04:57:24.511Z,9.47
2023-05-05T04:57:57.727Z,9.49
2023-05-05T04:58:31.262Z,9.52
2023-05-05T04:59:04.391Z,9.55
2023-05-05T04:59:37.492Z,9.57
2023-05-05T05:00:11.290Z,9.59
2023-05-05T05:00:44.711Z,9.61
2023-05-05T05:01:17.841Z,9.63
2023-05-05T05:01:51.044Z,9.66
2023-05-05T05:02:24.524Z,9.68
2023-05-05T05:02:58.294Z,9.70
2023-05-05T05:03:32.325Z,9.72
2023-05-05T05:04:05.665Z,9.74
2023-05-05T05:04:38.858Z,9.78
2023-05-05T05:05:12.139Z,9.80
2023-05-05T05:05:45.588Z,9.82
2023-05-05T05:06:18.850Z,9.85
2023-05-05T05:06:52.014Z,9.86
2023-05-05T05:07:25.431Z,9.88
2023-05-05T05:07:58.523Z,9.91
2023-05-05T05:08:31.838Z,9.92
2023-05-05T05:09:05.206Z,9.94
2023-05-05T05:09:38.358Z,9.96
2023-05-05T05:10:11.618Z,9.99
2023-05-05T05:10:45.390Z,10.02
2023-05-05T05:11:18.565Z,10.05
2023-05-05T05:11:51.789Z,10.08
2023-05-05T05:12:25.003Z,10.11
2023-05-05T05:12:58.259Z,10.14
2023-05-05T05:13:31.773Z,10.16
2023-05-05T05:14:04.969Z,10.19
2023-05-05T05:14:38.511Z,10.23
2023-05-05T05:15:13.157Z,10.25
2023-05-05T05:15:46.420Z,10.26
2023-05-05T05:16:19.804Z,10.29
2023-05-05T05:16:53.061Z,10.31
2023-05-05T05:17:27.074Z,10.33
2023-05-05T05:18:00.381Z,10.35
2023-05-05T05:18:33.628Z,10.38
2023-05-05T05:19:06.872Z,10.41
2023-05-05T05:19:40.098Z,10.46
2023-05-05T05:20:13.115Z,10.49
2023-05-05T05:20:46.596Z,10.52
2023-05-05T05:21:20.074Z,10.55
2023-05-05T05:21:53.263Z,10.57
2023-05-05T05:22:26.361Z,10.61
2023-05-05T05:23:02.303Z,10.64
2023-05-05T05:23:35.428Z,10.66
2023-05-05T05:24:08.687Z,10.69
2023-05-05T05:24:41.748Z,10.73
2023-05-05T05:25:14.988Z,10.76
2023-05-05T05:25:48.155Z,10.79
2023-05-05T05:26:21.876Z,10.82
2023-05-05T05:26:55.129Z,10.83
2023-05-05T05:27:28.271Z,10.84
2023-05-05T05:28:10.370Z,10.88
2023-05-05T05:28:44.006Z,10.93
2023-05-05T05:29:17.420Z,10.96
2023-05-05T05:29:51.500Z,10.99
2023-05-05T05:30:25.305Z,11.00
2023-05-05T05:30:58.604Z,11.03
2023-05-05T05:31:31.928Z,11.05
2023-05-05T05:32:05.392Z,11.08
2023-05-05T05:32:38.881Z,11.11
2023-05-05T05:33:12.377Z,11.17
2023-05-05T05:33:45.653Z,11.19
2023-05-05T05:34:18.735Z,11.24
2023-05-05T05:34:51.844Z,11.26
2023-05-05T05:35:25.023Z,11.30
2023-05-05T05:35:58.227Z,11.35
2023-05-05T05:36:31.924Z,11.37
2023-05-05T05:37:05.158Z,11.42
2023-05-05T05:37:38.265Z,11.45
2023-05-05T05:38:11.571Z,11.48
2023-05-05T05:38:44.679Z,11.50
2023-05-05T05:39:17.996Z,11.51
2023-05-05T05:39:51.640Z,11.53
2023-05-05T05:40:24.864Z,11.53
2023-05-05T05:40:58.200Z,11.53
2023-05-05T05:41:31.499Z,11.54
2023-05-05T05:42:04.743Z,11.55
2023-05-05T05:42:38.031Z,11.56
2023-05-05T05:43:11.118Z,11.58
2023-05-05T05:43:44.466Z,11.59
2023-05-05T05:44:17.672Z,11.61
2023-05-05T05:44:50.975Z,11.60
2023-05-05T05:45:24.241Z,11.61
2023-05-05T05:45:57.461Z,11.61
2023-05-05T05:46:30.737Z,11.63
2023-05-05T05:47:04.050Z,11.65
2023-05-05T05:47:37.166Z,11.66
2023-05-05T05:48:10.182Z,11.70
2023-05-05T05:48:43.240Z,11.72
2023-05-05T05:49:16.946Z,11.75
2023-05-05T05:49:49.959Z,11.77
2023-05-05T05:50:23.055Z,11.79
2023-05-05T05:50:56.634Z,11.82
2023-05-05T05:51:30.517Z,11.83
2023-05-05T05:52:03.797Z,11.86
2023-05-05T05:52:37.064Z,11.88
2023-05-05T05:53:10.160Z,11.89
2023-05-05T05:53:43.438Z,11.91
2023-05-05T05:54:16.578Z,11.94
2023-05-05T05:54:49.790Z,11.97
2023-05-05T05:55:22.884Z,11.99
2023-05-05T05:55:55.969Z,12.02
2023-05-05T05:56:29.142Z,12.04
2023-05-05T05:57:05.604Z,12.07
2023-05-05T05:57:39.131Z,12.09
2023-05-05T05:58:12.100Z,12.12
2023-05-05T05:58:45.493Z,12.13
2023-05-05T05:59:18.667Z,12.15
2023-05-05T05:59:51.907Z,12.18
2023-05-05T06:00:25.181Z,12.20
2023-05-05T06:01:00.077Z,12.23
2023-05-05T06:01:33.294Z,12.24
2023-05-05T06:02:07.961Z,12.27
2023-05-05T06:02:41.103Z,12.30
2023-05-05T06:03:14.817Z,12.34
2023-05-05T06:03:48.167Z,12.35
2023-05-05T06:04:21.554Z,12.40
2023-05-05T06:04:54.748Z,12.41
2023-05-05T06:05:28.081Z,12.43
2023-05-05T06:06:01.420Z,12.46
2023-05-05T06:06:34.660Z,12.47
2023-05-05T06:07:08.026Z,12.50
2023-05-05T06:07:41.410Z,12.52
2023-05-05T06:08:14.529Z,12.55
2023-05-05T06:08:47.772Z,12.55
2023-05-05T06:09:21.002Z,12.58
2023-05-05T06:09:54.165Z,12.62
2023-05-05T06:10:28.514Z,12.64
2023-05-05T06:11:01.931Z,12.66
2023-05-05T06:11:37.834Z,12.68
2023-05-05T06:12:11.085Z,12.71
2023-05-05T06:12:44.288Z,12.74
2023-05-05T06:13:17.645Z,12.79
2023-05-05T06:13:51.007Z,12.79
2023-05-05T06:14:24.137Z,12.82
2023-05-05T06:14:57.205Z,12.86
2023-05-05T06:15:30.521Z,12.88
2023-05-05T06:16:03.793Z,12.89
2023-05-05T06:16:37.094Z,12.93
2023-05-05T06:17:10.286Z,12.93
2023-05-05T06:17:43.668Z,12.96
2023-05-05T06:18:17.018Z,12.97
2023-05-05T06:18:50.198Z,12.99
2023-05-05T06:19:23.312Z,13.01
2023-05-05T06:19:56.482Z,13.04
2023-05-05T06:20:29.758Z,13.06
2023-05-05T06:21:02.933Z,13.07
2023-05-05T06:21:36.279Z,13.05
2023-05-05T06:22:09.695Z,13.08
2023-05-05T06:22:42.792Z,13.09
2023-05-05T06:23:16.082Z,13.12
2023-05-05T06:23:49.262Z,13.14
2023-05-05T06:24:22.427Z,13.17
2023-05-05T06:24:55.744Z,13.18
2023-05-05T06:25:28.990Z,13.20
2023-05-05T06:26:02.205Z,13.22
2023-05-05T06:26:35.348Z,13.22
2023-05-05T06:27:08.414Z,13.25
2023-05-05T06:27:41.517Z,13.27
2023-05-05T06:28:14.816Z,13.30
2023-05-05T06:28:48.065Z,13.32
2023-05-05T06:29:22.497Z,13.34
2023-05-05T06:29:55.790Z,13.36
2023-05-05T06:30:29.046Z,13.38
2023-05-05T06:31:02.389Z,13.40
2023-05-05T06:31:35.870Z,13.43
2023-05-05T06:32:09.226Z,13.45
2023-05-05T06:32:42.263Z,13.48
2023-05-05T06:33:15.420Z,13.49
2023-05-05T06:33:48.565Z,13.51
2023-05-05T06:34:21.720Z,13.52
2023-05-05T06:34:54.909Z,13.54
2023-05-05T06:35:28.022Z,13.57
2023-05-05T06:36:01.276Z,13.60
2023-05-05T06:36:34.601Z,13.63
2023-05-05T06:37:07.856Z,13.65
2023-05-05T06:37:41.089Z,13.68
2023-05-05T06:38:14.347Z,13.70
2023-05-05T06:38:47.704Z,13.74
2023-05-05T06:39:20.906Z,13.77
2023-05-05T06:39:53.918Z,13.80
2023-05-05T06:40:27.227Z,13.82
2023-05-05T06:41:00.487Z,13.85
2023-05-05T06:41:33.582Z,13.87
2023-05-05T06:42:07.103Z,13.91
2023-05-05T06:42:40.176Z,13.94
2023-05-05T06:43:13.424Z,13.95
2023-05-05T06:43:47.121Z,13.96
2023-05-05T06:44:20.328Z,13.96
2023-05-05T06:44:53.329Z,13.96
2023-05-05T06:45:26.416Z,13.95
2023-05-05T06:45:59.593Z,13.95
2023-05-05T06:46:33.068Z,13.97
2023-05-05T06:47:06.664Z,13.97
2023-05-05T06:47:39.919Z,14.01
2023-05-05T06:48:13.374Z,14.02
2023-05-05T06:48:46.497Z,14.04
2023-05-05T06:49:19.841Z,14.08
2023-05-05T06:49:52.894Z,14.09
2023-05-05T06:50:26.086Z,14.11
2023-05-05T06:50:59.132Z,14.14
2023-05-05T06:51:32.375Z,14.14
2023-05-05T06:52:05.502Z,14.16
2023-05-05T06:52:38.602Z,14.17
2023-05-05T06:53:11.803Z,14.17
2023-05-05T06:53:45.056Z,14.19
2023-05-05T06:54:18.274Z,14.20
2023-05-05T06:54:51.608Z,14.21
2023-05-05T06:55:25.203Z,14.21
2023-05-05T06:55:58.238Z,14.22
2023-05-05T06:56:31.372Z,14.25
2023-05-05T06:57:04.926Z,14.25
2023-05-05T06:57:38.069Z,14.27
2023-05-05T06:58:12.112Z,14.30
2023-05-05T06:58:45.335Z,14.31
2023-05-05T06:59:18.616Z,14.33
2023-05-05T06:59:52.201Z,14.32
2023-05-05T07:00:25.415Z,14.30
2023-05-05T07:00:58.630Z,14.30
2023-05-05T07:01:31.684Z,14.26
2023-05-05T07:02:04.751Z,14.22
2023-05-05T07:02:38.696Z,14.21
2023-05-05T07:03:12.543Z,14.20
2023-05-05T07:03:45.964Z,14.20
2023-05-05T07:04:19.270Z,14.19
2023-05-05T07:04:52.660Z,14.21
2023-05-05T07:05:26.017Z,14.21
2023-05-05T07:05:59.112Z,14.23
2023-05-05T07:06:32.917Z,14.26
2023-05-05T07:07:06.170Z,14.27
2023-05-05T07:07:41.458Z,14.30
2023-05-05T07:08:14.725Z,14.32
2023-05-05T07:08:47.797Z,14.35
2023-05-05T07:09:21.133Z,14.36
2023-05-05T07:09:54.279Z,14.38
2023-05-05T07:10:27.966Z,14.38
2023-05-05T07:11:01.409Z,14.40
2023-05-05T07:11:34.551Z,14.42
2023-05-05T07:12:07.817Z,14.44
2023-05-05T07:12:40.959Z,14.45
2023-05-05T07:13:16.107Z,14.48
2023-05-05T07:13:49.696Z,14.50
2023-05-05T07:14:24.354Z,14.52
2023-05-05T07:14:57.660Z,14.53
2023-05-05T07:15:30.781Z,14.55
2023-05-05T07:16:04.049Z,14.57
2023-05-05T07:16:37.519Z,14.59
2023-05-05T07:17:11.425Z,14.60
2023-05-05T07:17:44.834Z,14.61
2023-05-05T07:18:18.092Z,14.62
2023-05-05T07:18:51.326Z,14.64
2023-05-05T07:19:24.404Z,14.65
2023-05-05T07:19:57.536Z,14.67
2023-05-05T07:20:30.651Z,14.70
2023-05-05T07:21:05.957Z,14.73
2023-05-05T07:21:39.895Z,14.74
2023-05-05T07:22:13.048Z,14.76
2023-05-05T07:22:46.230Z,14.78
2023-05-05T07:23:19.407Z,14.80
2023-05-05T07:23:52.512Z,14.82
2023-05-05T07:24:25.780Z,14.83
2023-05-05T07:24:59.081Z,14.84
2023-05-05T07:25:32.261Z,14.81
2023-05-05T07:26:05.380Z,14.81
2023-05-05T07:26:38.620Z,14.79
2023-05-05T07:27:11.849Z,14.77
2023-05-05T07:27:45.078Z,14.73
2023-05-05T07:28:18.338Z,14.72
2023-05-05T07:28:52.341Z,14.73
2023-05-05T07:29:25.414Z,14.76
2023-05-05T07:29:58.533Z,14.81
2023-05-05T07:30:31.718Z,14.85
2023-05-05T07:31:04.969Z,14.88
2023-05-05T07:31:38.178Z,14.91
2023-05-05T07:32:11.463Z,14.95
2023-05-05T07:32:44.708Z,14.99
2023-05-05T07:33:18.860Z,15.01
2023-05-05T07:33:51.870Z,15.01
2023-05-05T07:34:25.050Z,15.03